createdAt,value
2022-09-15T00:07:58.010Z,16.33
2022-09-15T00:27:57.990Z,16.33
2022-09-15T00:47:57.968Z,16.33
2022-09-15T01:07:57.814Z,16.33
2022-09-15T01:27:57.907Z,16.33
2022-09-15T01:47:57.898Z,16.34
2022-09-15T02:07:56.734Z,16.34
2022-09-15T02:27:57.069Z,16.34
2022-09-15T02:47:57.837Z,16.33
2022-09-15T03:07:57.684Z,16.33
2022-09-15T03:27:57.773Z,16.33
2022-09-15T03:47:57.746Z,16.33
2022-09-15T04:27:57.695Z,16.33
2022-09-15T05:07:57.634Z,16.33
2022-09-15T06:07:57.587Z,16.33
2022-09-15T06:48:13.600Z,16.33
2022-09-15T07:07:57.496Z,16.33
2022-09-15T07:27:57.467Z,16.33
2022-09-15T07:47:57.433Z,16.33
2022-09-15T08:27:57.379Z,16.33
2022-09-15T08:47:56.848Z,16.33
2022-09-15T09:07:57.321Z,16.33
2022-09-15T09:27:57.284Z,16.33
2022-09-15T09:48:00.884Z,16.33
2022-09-15T10:07:56.456Z,16.33
2022-09-15T10:27:57.202Z,16.32
2022-09-15T10:47:57.169Z,16.32
2022-09-15T11:07:56.618Z,16.32
2022-09-15T11:27:57.114Z,16.32
2022-09-15T11:47:57.079Z,16.32
2022-09-15T12:07:57.049Z,16.32
2022-09-15T12:27:57.019Z,16.32
2022-09-15T13:07:56.953Z,16.31
2022-09-15T14:07:57.907Z,16.31
2022-09-15T14:27:56.055Z,16.31
2022-09-15T14:47:56.793Z,16.31
2022-09-15T15:07:56.022Z,16.3
2022-09-15T15:27:56.731Z,16.3
2022-09-15T15:47:56.183Z,16.3
2022-09-15T16:27:56.644Z,16.3
2022-09-15T16:47:56.614Z,16.3
2022-09-15T17:07:56.582Z,16.29
2022-09-15T17:27:55.785Z,16.29
2022-09-15T17:47:56.529Z,16.29
2022-09-15T18:07:56.510Z,16.29
2022-09-15T18:27:55.941Z,16.28
2022-09-15T18:47:56.450Z,16.28
2022-09-15T19:07:55.342Z,16.28
2022-09-15T19:27:55.619Z,16.28
2022-09-15T19:47:56.362Z,16.28
2022-09-15T20:07:56.342Z,16.27
2022-09-15T20:27:56.182Z,16.27
2022-09-15T20:47:55.516Z,16.27
2022-09-15T21:07:56.267Z,16.27
2022-09-15T21:27:56.250Z,16.27
2022-09-15T22:07:56.180Z,16.27
2022-09-15T22:27:56.162Z,16.26
2022-09-15T22:47:56.141Z,16.26
2022-09-15T23:07:55.339Z,16.26
2022-09-15T23:27:56.079Z,16.26
2022-09-15T23:47:55.294Z,16.26
